Terminal Aerodrome Forecast
Issued by NWS

Home | Current Version | Previous Version | Text Only | Print | Product List | Glossary Off
Versions: 1 2 3 4 5 6 7 8 9 10 11 12 13 14 15

860
FTUS41 KCLE 181738 AAB
TAFFDY
TAF AMD
KFDY 181738Z 1818/1918 07012G20KT P6SM VCSH SCT040 OVC060
      TEMPO 1818/1822 6SM -SHRA BKN035
     FM190000 07012G20KT 6SM -SHRA BKN025 OVC035
     FM190400 09010KT P6SM BKN025 OVC035
     FM191000 16010KT P6SM BKN015 BKN040
     FM191500 18012G20KT 6SM -SHRA OVC025=

USA.gov is the U.S. government's official web portal to all federal, state and local government web resources and services.